Tomah, WI (54660)

2:36 AM CDT on August 31, 2015 (GMT -0500)
Volk | | Change Station
CLOSE
Current Station
Airport
Location: Volk,
Elevation: 909 ft
Nearby Weather Stations
Active Advisory: Special Statement

Elev 909 ft 43.94 °N, 90.25 °W | Updated 18 minutes ago

Clear
Clear
54 °F
Feels Like 54 °F
N
2
Wind Variable Wind from SE

Today
High -- | Low -- °F
--% Chance of Precip.
Yesterday
High -- | Low -- °F
Precip. -- in
6:23 AM 7:39 PM
Waning Gibbous, 96% visible
Pressure 30.01 in
Visibility 0.2 miles
Clouds Clear
Dew Point 54 °F
Humidity 100%
Rainfall 0.00 in
Snow Depth Not available.
UV 0 out of 12
Pollen 10.00 out of 12
Air Quality Not available.
Flu Activity Not available.
METAR KVOK 310718Z AUTO 13002KT 1/4SM R27/1000FT FG CLR 12/12 A3001 RMK AO2
Pressure 30.01 in
Visibility 0.2 miles
Clouds Clear
Dew Point 54 °F
Humidity 100%
Rainfall 0.00 in
Snow Depth Not available.
UV 0 out of 12
Pollen 10.00 out of 12
Air Quality Not available.
Flu Activity Not available.
METAR KVOK 310718Z AUTO 13002KT 1/4SM R27/1000FT FG CLR 12/12 A3001 RMK AO2

10-Day Weather Forecast

×

Almanac

Astronomy

Aug. 31, 2015 Rise Set
Actual Time
Civil Twilight
Nautical Twilight
Astronomical Twilight
Moon
Length of Visible Light
Length of Day
Tomorrow will be .
, % of the Moon is Illuminated

Today's Extremes

State Highs State Lows

Community

WunderPhotos

Upload Photos

1,851,220 photos uploaded!

WunderBlogs® & News

Nearby

Air Quality

  Air Quality AQ Index Pollutant
Not available.

Snow Depth

Station Depth Elevation

Earthquake Activity

City Distance Mag. Time & Date
Minimum magnitude displayed is 2.5.

Coastal Water Temperatures

Place Temperature

Stations

Nearby Weather Stations

Station Location Temp. Windchill Dew Point Humidity Wind Precip. Elev Updated Type
                   
Special Statement
Statement as of 12:45 AM CDT on August 31, 2015

... Patchy dense fog early this morning...

Look for patchy dense fog across the sand country of central
Wisconsin early this morning. If traveling... watch out for reduced
visibility which may drop to 1/4 mile at times. Slow down and use
caution.


Das


1245 am CDT Mon Aug 31 2015

... Patchy dense fog early this morning...

Look for patchy dense fog across the sand country of central
Wisconsin early this morning. If traveling... watch out for reduced
visibility which may drop to 1/4 mile at times. Slow down and use
caution.


Das